• Join FlightAware (Why Join?)
  • Login
  • US Flag 
03:05PM EDT


 

Airport Tracker/Info


-or-


 

Live Flight TrackerFlight Track Log ✈ AWI3778 ✈ 19-Jun-2013 ✈ KBTV - KPHL

Flight Track Log - Related Links

Times and Time Zones

All times are in EDT time to prevent confusion due to time zone crossing. See the AWI3778 flight status page for this flight to view local times or setup timezone preferences in your user account.

Time Position Orientation Groundspeed Altitude Reporting Facility
EDT Latitude Longitude Course Direction KTS MPH feet Rate Location/Type
02:10PM 44.4478 -73.3067 198° South 276 318 7,200  Level Boston Center
02:11PM 44.3703 -73.3317 193° South 291 335 10,300 2,400 Climbing Boston Center
02:12PM 44.2869 -73.3594 193° South 296 341 12,000 1,560 Climbing Boston Center
02:13PM 44.1928 -73.3869 192° South 327 376 13,500 1,440 Climbing Boston Center
02:14PM 44.1008 -73.4144 192° South 366 421 14,900 1,440 Climbing Boston Center
02:15PM 43.9986 -73.4444 192° South 378 435 16,400 1,500 Climbing Boston Center
02:16PM 43.8919 -73.4744 191° South 388 447 17,900 1,380 Climbing Boston Center
02:17PM 43.7978 -73.5361 205° Southwest 388 447 19,200 1,380 Climbing Boston Center
02:18PM 43.7094 -73.6178 214° Southwest 387 445 20,700 1,440 Climbing Boston Center
02:19PM 43.6211 -73.6906 211° Southwest 387 445 22,100 1,440 Climbing Boston Center
02:20PM 43.5347 -73.7689 213° Southwest 382 440 23,600 900 Climbing Boston Center
02:21PM 43.4483 -73.8442 212° Southwest 377 434 24,000 180 Climbing Boston Center
02:22PM 43.3431 -73.9389 213° Southwest 389 448 24,000  Level Boston Center
02:23PM 43.2458 -74.0250 213° Southwest 405 466 24,000  Level Boston Center
02:24PM 43.1467 -74.1161 214° Southwest 426 490 24,000  Level Boston Center
02:25PM 43.0600 -74.1933 213° Southwest 426 490 24,000  Level Boston Center
02:26PM 42.9672 -74.2731 212° Southwest 414 476 24,000  Level Boston Center
02:27PM 42.8908 -74.3417 213° Southwest 382 440 24,000  Level Boston Center
02:28PM 42.8128 -74.4072 212° Southwest 349 402 24,000  Level Boston Center
02:29PM 42.7364 -74.4783 214° Southwest 337 388 24,000  Level Boston Center
02:30PM 42.6581 -74.5433 211° Southwest 332 382 24,000  Level Boston Center
02:31PM 42.5775 -74.6169 214° Southwest 338 389 24,000  Level Boston Center
02:32PM 42.4992 -74.6817 211° Southwest 338 389 24,000 -600 Level Boston Center
02:33PM 42.4206 -74.7492 212° Southwest 338 389 22,900 -1,620 Descending Boston Center
02:35PM 42.2536 -74.8919 212° Southwest 325 374 19,000 -1,260 Descending New York Center
02:36PM 42.1783 -74.9572 213° Southwest 320 368 19,000  Level New York Center
02:37PM 42.1078 -75.0169 212° Southwest 325 374 19,000  Level New York Center
02:38PM 42.0239 -75.0869 212° Southwest 330 380 19,000  Level New York Center
02:39PM 41.9531 -75.1439 211° Southwest 330 380 19,000  Level New York Center
02:40PM 41.8758 -75.2056 211° Southwest 330 380 19,000  Level New York Center
02:41PM 41.7922 -75.2750 212° Southwest 330 380 19,000 -480 Level New York Center
02:42PM 41.7106 -75.3417 211° Southwest 330 380 18,100 -1,440 Descending New York Center
02:43PM 41.6181 -75.4131 210° Southwest 365 420 16,200 -2,040 Descending New York Center
02:44PM 41.5342 -75.4822 212° Southwest 391 450 14,100 -2,040 Descending New York Center
02:45PM 41.4417 -75.5558 211° Southwest 397 457 12,100 -1,020 Descending New York Center
02:46PM 41.3514 -75.6269 211° Southwest 391 450 12,100  Level New York Center
02:47PM 41.2489 -75.6883 204° Southwest 380 437 12,100  Level New York Center
02:48PM 41.1425 -75.6889 180° South 376 433 12,100  Level New York Center
02:49PM 41.0344 -75.6867 179° South 395 455 12,100 -240 Level New York Center
02:50PM 40.9258 -75.6869 180° South 401 461 11,700 -720 Descending New York Center
02:51PM 40.8469 -75.6867 180° South 353 406 10,700 -900 Descending New York Center
02:52PM 40.7531 -75.6856 179° South 321 369 10,000 -360 Descending New York Center
02:53PM 40.6678 -75.6850 180° South 305 351 10,000  Level New York Center
02:54PM 40.5847 -75.6761 175° South 305 351 10,000  Level New York Center
02:55PM 40.5358 -75.5989 130° Southeast 291 335 10,000 -120 Level New York Center
02:56PM 40.4847 -75.5244 132° Southeast 278 320 9,800 -540 Descending New York Center
02:57PM 40.4128 -75.5003 166° South 245 282 9,000 -660 Descending New York Center
02:58PM 40.3508 -75.4825 168° South 238 274 8,500 -840 Descending New York Center
02:59PM 40.2972 -75.4653 166° South 233 268 7,400 -900 Descending New York Center
03:00PM 40.2356 -75.4475 168° South 233 268 6,800 -720 Descending New York Center
03:01PM 40.1653 -75.4292 169° South 238 274 6,000 -420 Descending New York Center
03:02PM 40.1117 -75.4147 168° South 228 262 6,000  Level New York Center
03:03PM 40.0478 -75.3969 168° South 223 257 6,000  Level New York Center
03:04PM 39.9922 -75.3822 169° South 216 249 6,000  Level New York Center
03:05PM 39.9319 -75.3783 177° South 216 249 6,000  Level New York Center
03:06PM 39.9164 -75.4506 254° West 173 199 6,000  Level New York Center
03:07PM 39.9056 -75.5172 258° West 183 211 6,000  Level New York Center
03:08PM 39.8925 -75.5786 255° West 190 219 6,000 -660 Level New York Center
03:10PM 39.8167 -75.7000 231° Southwest 193 222 4,000 -660 Descending Philadelphia TRACON
03:11PM 39.7833 -75.6500 131° Southeast 186 214 4,000  Level Philadelphia TRACON
03:12PM 39.8000 -75.5833 72° East 180 207 4,000 -120 Level Philadelphia TRACON
03:13PM 39.8167 -75.5167 72° East 183 211 3,800 -240 Descending Philadelphia TRACON